Time;durP1;ratioP1;P1;durP2;ratioP2;P2;SDS_P1;SDS_P2;PMS_P1;PMS_P2;Temp;Humidity;BMP_temperature;BMP_pressure;BME280_temperature;BME280_humidity;BME280_pressure;Samples;Min_cycle;Max_cycle;Signal;HPM_P1;HPM_P2
2023/12/09 00:02:26;;;;;;;165.55;38.85;;;3.00;97.50;;;;;;5054328;28;20355;-60
2023/12/09 00:04:53;;;;;;;168.63;41.03;;;3.00;97.50;;;;;;5074112;28;20055;-61
2023/12/09 00:07:20;;;;;;;158.52;40.47;;;3.00;97.50;;;;;;5092959;28;20039;-62
2023/12/09 00:09:46;;;;;;;115.47;38.65;;;3.00;97.50;;;;;;5092838;28;20039;-62
2023/12/09 00:12:15;;;;;;;121.68;37.75;;;3.00;97.50;;;;;;5082219;28;20029;-61
2023/12/09 00:14:42;;;;;;;106.20;37.60;;;3.00;97.50;;;;;;5054881;28;20111;-62
2023/12/09 00:17:10;;;;;;;151.18;37.30;;;3.00;97.60;;;;;;5089515;28;20028;-62
2023/12/09 00:19:38;;;;;;;187.45;42.45;;;3.00;97.60;;;;;;5076055;28;20021;-62
2023/12/09 00:22:07;;;;;;;157.00;40.55;;;3.10;97.70;;;;;;5087100;28;20027;-62
2023/12/09 00:24:33;;;;;;;123.57;37.55;;;3.20;97.70;;;;;;5088203;28;20028;-63
2023/12/09 00:27:00;;;;;;;142.43;42.50;;;3.20;97.70;;;;;;5092236;28;20051;-62
2023/12/09 00:29:27;;;;;;;167.10;40.65;;;3.30;97.70;;;;;;5092737;28;20024;-62
2023/12/09 00:31:54;;;;;;;202.48;46.40;;;3.20;97.60;;;;;;5089038;28;20334;-62
2023/12/09 00:34:20;;;;;;;150.25;40.95;;;3.20;97.70;;;;;;5072446;28;20032;-62
2023/12/09 00:36:49;;;;;;;157.05;39.83;;;3.20;97.70;;;;;;5073683;28;20024;-62
2023/12/09 00:39:16;;;;;;;226.20;46.10;;;3.20;97.70;;;;;;5072430;28;20572;-62
2023/12/09 00:41:45;;;;;;;195.60;45.83;;;3.20;97.70;;;;;;5072293;28;20115;-62
2023/12/09 00:44:10;;;;;;;137.32;42.20;;;3.30;97.80;;;;;;5072534;28;20064;-62
2023/12/09 00:46:38;;;;;;;326.70;54.53;;;3.40;97.80;;;;;;5072475;28;20109;-63
2023/12/09 00:49:07;;;;;;;199.07;44.85;;;3.40;97.70;;;;;;5071989;28;20052;-62
2023/12/09 00:51:33;;;;;;;192.18;44.10;;;3.50;97.80;;;;;;5080962;28;20024;-63
2023/12/09 00:54:00;;;;;;;258.25;49.03;;;3.50;97.70;;;;;;5090372;28;20081;-63
2023/12/09 00:56:26;;;;;;;207.82;46.75;;;3.60;97.90;;;;;;5072398;28;20029;-63
2023/12/09 00:58:57;;;;;;;301.75;54.35;;;3.60;97.90;;;;;;5072359;28;20028;-62
2023/12/09 01:01:23;;;;;;;247.77;46.97;;;3.60;97.80;;;;;;5081402;28;20461;-62
2023/12/09 01:03:53;;;;;;;225.32;48.65;;;3.60;97.70;;;;;;5083422;28;20064;-62
2023/12/09 01:06:20;;;;;;;259.58;52.88;;;3.70;97.90;;;;;;5077257;28;20020;-62
2023/12/09 01:08:46;;;;;;;245.25;53.08;;;3.70;97.80;;;;;;5075662;28;20389;-62
2023/12/09 01:11:21;;;;;;;268.33;51.17;;;3.70;97.90;;;;;;5076170;28;20032;-62
2023/12/09 01:13:51;;;;;;;212.82;46.00;;;3.60;97.80;;;;;;5075365;28;20021;-62
2023/12/09 01:16:18;;;;;;;140.15;40.20;;;3.60;97.80;;;;;;5085178;28;20028;-62
2023/12/09 01:18:43;;;;;;;203.07;46.85;;;3.60;97.80;;;;;;5063488;28;20052;-62
2023/12/09 01:21:10;;;;;;;226.07;54.70;;;3.60;97.90;;;;;;5076811;28;20025;-62
2023/12/09 01:23:39;;;;;;;268.48;53.33;;;3.70;98.00;;;;;;5075320;28;20078;-62
2023/12/09 01:26:08;;;;;;;197.43;48.97;;;3.70;97.90;;;;;;5075346;28;20044;-62
2023/12/09 01:28:35;;;;;;;362.70;60.10;;;3.70;98.00;;;;;;5075110;28;20024;-60
2023/12/09 01:31:00;;;;;;;351.20;64.75;;;3.80;97.90;;;;;;5057625;28;20025;-61
2023/12/09 01:33:30;;;;;;;310.20;55.00;;;3.80;98.00;;;;;;5092570;28;20051;-61
2023/12/09 01:35:58;;;;;;;;;;;3.80;98.00;;;;;;5093722;28;20032;-60
2023/12/09 01:38:25;;;;;;;228.15;49.72;;;3.80;97.90;;;;;;5095073;28;19908;-62
2023/12/09 01:41:00;;;;;;;390.00;61.58;;;3.70;98.00;;;;;;5086311;28;20029;-61
2023/12/09 01:43:27;;;;;;;180.30;41.38;;;3.80;98.00;;;;;;5094944;28;20024;-61
2023/12/09 01:46:00;;;;;;;204.05;47.05;;;3.70;97.90;;;;;;5094709;28;20020;-61
2023/12/09 01:48:27;;;;;;;285.10;53.42;;;3.70;97.90;;;;;;5076645;28;20031;-61
2023/12/09 01:50:55;;;;;;;150.75;41.97;;;3.70;98.00;;;;;;5086772;28;20028;-60
2023/12/09 01:53:21;;;;;;;265.67;51.88;;;3.70;98.00;;;;;;5074835;28;20028;-58
2023/12/09 01:55:48;;;;;;;146.63;41.45;;;3.70;98.00;;;;;;5074840;28;20024;-61
2023/12/09 01:58:17;;;;;;;185.07;44.83;;;3.70;98.00;;;;;;5072320;28;20115;-60
2023/12/09 02:00:46;;;;;;;286.20;53.50;;;3.60;97.90;;;;;;5076018;28;20047;-61
2023/12/09 02:03:12;;;;;;;344.63;57.33;;;3.70;98.00;;;;;;5056742;28;20095;-61
2023/12/09 02:05:38;;;;;;;228.85;48.50;;;3.70;98.00;;;;;;5078221;28;20078;-61
2023/12/09 02:08:05;;;;;;;299.92;58.80;;;3.80;98.10;;;;;;5094659;28;20377;-61
2023/12/09 02:10:35;;;;;;;197.52;48.08;;;3.80;98.10;;;;;;5093689;28;20032;-60
2023/12/09 02:13:06;;;;;;;196.77;44.35;;;3.80;98.10;;;;;;5073148;28;20493;-59
2023/12/09 02:15:58;;;;;;;299.92;58.80;;;3.90;98.20;;;;;;5073854;28;20050;-61
2023/12/09 02:18:26;;;;;;;192.65;45.78;;;3.90;98.10;;;;;;5073667;28;20024;-61
2023/12/09 02:20:53;;;;;;;175.60;48.28;;;3.90;98.10;;;;;;5072810;28;20422;-59
2023/12/09 02:23:20;;;;;;;296.90;51.00;;;4.00;98.10;;;;;;5073442;28;20442;-59
2023/12/09 02:25:54;;;;;;;293.10;52.88;;;3.90;98.10;;;;;;5069297;28;20036;-60
2023/12/09 02:28:28;;;;;;;130.32;40.15;;;4.00;98.10;;;;;;5074575;28;20108;-59
2023/12/09 02:31:14;;;;;;;129.30;42.55;;;3.90;98.10;;;;;;5043222;28;20050;-59
2023/12/09 02:33:43;;;;;;;114.78;40.25;;;3.90;98.00;;;;;;5061729;28;20084;-59
2023/12/09 02:36:13;;;;;;;202.48;48.42;;;3.90;98.10;;;;;;5074999;28;20028;-59
2023/12/09 02:38:40;;;;;;;;;;;3.90;98.10;;;;;;5064568;28;20128;-58
2023/12/09 02:41:21;;;;;;;128.13;37.28;;;4.00;98.20;;;;;;5075181;28;19973;-60
2023/12/09 02:43:49;;;;;;;137.85;39.42;;;4.00;98.20;;;;;;5093128;28;20027;-60
2023/12/09 02:46:15;;;;;;;161.35;44.08;;;4.00;98.10;;;;;;5073591;28;20400;-59
2023/12/09 02:48:43;;;;;;;150.27;42.30;;;4.10;98.20;;;;;;5090245;28;20170;-60
2023/12/09 02:51:10;;;;;;;174.50;45.73;;;4.10;98.20;;;;;;5074237;28;20036;-59
2023/12/09 02:53:37;;;;;;;148.70;41.10;;;4.10;98.20;;;;;;5091566;28;20039;-57
2023/12/09 02:56:05;;;;;;;153.48;43.75;;;4.10;98.20;;;;;;5072980;28;20029;-58
2023/12/09 02:58:30;;;;;;;149.50;42.50;;;4.20;98.20;;;;;;5073198;28;20481;-59
2023/12/09 03:00:57;;;;;;;158.98;45.10;;;4.30;98.30;;;;;;5073432;28;20071;-59
2023/12/09 03:03:25;;;;;;;171.20;47.05;;;4.30;98.20;;;;;;5070097;28;20045;-57
2023/12/09 03:05:53;;;;;;;138.35;43.90;;;4.20;98.10;;;;;;5061373;28;20486;-59
2023/12/09 03:08:19;;;;;;;165.43;41.20;;;4.30;98.20;;;;;;5072570;28;20440;-58
2023/12/09 03:10:45;;;;;;;190.80;45.10;;;4.30;98.20;;;;;;5072807;28;20327;-58
2023/12/09 03:13:12;;;;;;;183.57;48.67;;;4.30;98.20;;;;;;5073255;28;20048;-60
2023/12/09 03:15:39;;;;;;;173.98;45.80;;;4.30;98.30;;;;;;5057910;28;20029;-59
2023/12/09 03:18:10;;;;;;;152.20;43.80;;;4.40;98.30;;;;;;5073411;28;20020;-58
2023/12/09 03:20:38;;;;;;;171.25;47.80;;;4.40;98.30;;;;;;5051731;28;20033;-60
2023/12/09 03:23:05;;;;;;;157.90;43.05;;;4.40;98.20;;;;;;5054192;28;20083;-58
2023/12/09 03:25:33;;;;;;;240.07;53.47;;;4.40;98.30;;;;;;5073227;28;20021;-59
2023/12/09 03:28:02;;;;;;;217.30;51.65;;;4.40;98.20;;;;;;5048269;28;20038;-59
2023/12/09 03:30:29;;;;;;;215.75;49.22;;;4.40;98.20;;;;;;5072891;28;20120;-59
2023/12/09 03:32:56;;;;;;;175.68;45.15;;;4.40;98.30;;;;;;5060085;28;20087;-58
2023/12/09 03:35:24;;;;;;;172.18;45.28;;;4.40;98.20;;;;;;5052216;28;20044;-57
2023/12/09 03:37:51;;;;;;;180.77;47.08;;;4.40;98.20;;;;;;5054026;28;20032;-57
2023/12/09 03:40:18;;;;;;;226.18;51.92;;;4.40;98.30;;;;;;5049565;28;20499;-58
2023/12/09 03:42:45;;;;;;;157.75;43.63;;;4.50;98.30;;;;;;5063997;28;20068;-59
2023/12/09 03:45:12;;;;;;;195.77;48.25;;;4.50;98.30;;;;;;5072688;28;20028;-59
2023/12/09 03:47:38;;;;;;;164.95;44.05;;;4.50;98.30;;;;;;5057903;28;20188;-58
2023/12/09 03:50:04;;;;;;;147.85;44.38;;;4.50;98.30;;;;;;5055531;28;20149;-60
2023/12/09 03:52:32;;;;;;;177.52;47.05;;;4.50;98.30;;;;;;5066706;28;20118;-59
2023/12/09 03:54:59;;;;;;;160.55;48.05;;;4.50;98.30;;;;;;5069027;28;20043;-57
2023/12/09 03:57:26;;;;;;;166.25;46.22;;;4.60;98.40;;;;;;5058594;28;20028;-57
2023/12/09 03:59:54;;;;;;;141.02;42.75;;;4.60;98.30;;;;;;5058160;28;20032;-59
2023/12/09 04:02:21;;;;;;;178.32;49.22;;;4.60;98.30;;;;;;5079295;28;20048;-59
2023/12/09 04:04:46;;;;;;;177.10;46.63;;;4.60;98.30;;;;;;5089957;28;20028;-59
2023/12/09 04:07:13;;;;;;;176.02;44.83;;;4.70;98.30;;;;;;5090441;28;20785;-59
2023/12/09 04:09:39;;;;;;;190.82;48.38;;;4.70;98.40;;;;;;5087446;28;20028;-60
2023/12/09 04:12:06;;;;;;;158.70;44.25;;;4.70;98.40;;;;;;5054999;28;20323;-60
2023/12/09 04:14:34;;;;;;;135.13;40.83;;;4.70;98.30;;;;;;5087820;28;20069;-60
2023/12/09 04:17:01;;;;;;;183.10;46.38;;;4.60;98.30;;;;;;5072948;28;20036;-60
2023/12/09 04:19:30;;;;;;;167.07;44.58;;;4.70;98.40;;;;;;5072549;28;20025;-61
2023/12/09 04:21:56;;;;;;;145.93;42.83;;;4.70;98.40;;;;;;5079166;28;20024;-60
2023/12/09 04:24:23;;;;;;;180.20;48.78;;;4.70;98.40;;;;;;5091796;28;20028;-58
2023/12/09 04:26:49;;;;;;;141.43;43.00;;;4.70;98.30;;;;;;5074653;28;20449;-60
2023/12/09 04:29:15;;;;;;;162.55;46.53;;;4.80;98.40;;;;;;5082774;28;20033;-59
2023/12/09 04:31:42;;;;;;;198.98;49.47;;;4.70;98.30;;;;;;5073740;28;20032;-59
2023/12/09 04:34:09;;;;;;;171.25;46.70;;;4.70;98.30;;;;;;5086452;28;20468;-61
2023/12/09 04:36:36;;;;;;;173.77;45.30;;;4.70;98.30;;;;;;5078034;28;20035;-61
2023/12/09 04:39:03;;;;;;;223.35;50.20;;;4.70;98.30;;;;;;5080784;28;20032;-60
2023/12/09 04:41:30;;;;;;;223.20;50.17;;;4.60;98.30;;;;;;5076269;28;20032;-59
2023/12/09 04:43:58;;;;;;;156.73;43.33;;;4.50;98.30;;;;;;5075611;28;20031;-61
2023/12/09 04:46:24;;;;;;;213.30;46.90;;;4.50;98.30;;;;;;5095000;28;20082;-61
2023/12/09 04:48:52;;;;;;;197.75;49.03;;;4.60;98.40;;;;;;5095928;28;20113;-61
2023/12/09 04:51:19;;;;;;;179.07;44.47;;;4.50;98.30;;;;;;5095479;28;20024;-61
2023/12/09 04:53:47;;;;;;;169.82;43.72;;;4.50;98.40;;;;;;5077769;28;20354;-62
2023/12/09 04:56:15;;;;;;;172.52;43.30;;;4.60;98.40;;;;;;5076231;28;20024;-62
2023/12/09 04:58:42;;;;;;;169.63;47.30;;;4.60;98.40;;;;;;5057763;28;20025;-62
2023/12/09 05:01:09;;;;;;;172.52;46.30;;;4.60;98.40;;;;;;5075643;28;20027;-62
2023/12/09 05:03:37;;;;;;;181.20;45.28;;;4.60;98.40;;;;;;5092731;28;20048;-62
2023/12/09 05:06:04;;;;;;;194.80;48.25;;;4.60;98.40;;;;;;5095768;28;20042;-60
2023/12/09 05:08:32;;;;;;;245.38;51.92;;;4.60;98.40;;;;;;5093914;28;20028;-61
2023/12/09 05:11:00;;;;;;;171.95;42.20;;;4.60;98.40;;;;;;5076347;28;20031;-61
2023/12/09 05:13:26;;;;;;;167.32;45.25;;;4.60;98.40;;;;;;5075350;28;20035;-60
2023/12/09 05:15:54;;;;;;;222.10;47.80;;;4.70;98.40;;;;;;5075664;28;20115;-60
2023/12/09 05:18:21;;;;;;;156.93;43.45;;;4.60;98.40;;;;;;5088312;28;20032;-62
2023/12/09 05:20:49;;;;;;;113.95;39.03;;;4.60;98.40;;;;;;5095569;28;20121;-61
2023/12/09 05:23:17;;;;;;;126.25;41.60;;;4.60;98.40;;;;;;5076267;28;20024;-61
2023/12/09 05:25:44;;;;;;;160.75;42.13;;;4.60;98.40;;;;;;5075200;28;20090;-62
2023/12/09 05:28:11;;;;;;;144.15;41.00;;;4.50;98.30;;;;;;5075530;28;20107;-62
2023/12/09 05:30:40;;;;;;;158.90;45.92;;;4.60;98.40;;;;;;5074878;28;20028;-62
2023/12/09 05:33:06;;;;;;;135.85;42.05;;;4.60;98.40;;;;;;5041289;28;20032;-61
2023/12/09 05:35:42;;;;;;;160.70;42.92;;;4.60;98.40;;;;;;5075150;28;20103;-62
2023/12/09 05:38:09;;;;;;;134.35;42.35;;;4.50;98.40;;;;;;5076286;28;20044;-62
2023/12/09 05:40:39;;;;;;;132.65;39.78;;;4.50;98.40;;;;;;5075006;28;20108;-61
2023/12/09 05:43:05;;;;;;;133.05;40.30;;;4.60;98.40;;;;;;5074780;28;20099;-61
2023/12/09 05:45:34;;;;;;;139.95;40.28;;;4.60;98.50;;;;;;5074716;28;20020;-59
2023/12/09 05:48:02;;;;;;;129.65;39.47;;;4.60;98.50;;;;;;5075323;28;20361;-62
2023/12/09 05:50:28;;;;;;;136.40;41.90;;;4.60;98.40;;;;;;5079820;28;20067;-61
2023/12/09 05:52:55;;;;;;;138.38;37.97;;;4.70;98.50;;;;;;5088574;28;20462;-60
2023/12/09 05:55:22;;;;;;;106.63;35.22;;;4.70;98.50;;;;;;5076633;28;20349;-60
2023/12/09 05:57:50;;;;;;;121.85;37.40;;;4.60;98.40;;;;;;5074460;28;20024;-59
2023/12/09 06:00:17;;;;;;;104.55;36.22;;;4.60;98.40;;;;;;5056754;28;20354;-60
2023/12/09 06:02:46;;;;;;;131.55;43.35;;;4.60;98.40;;;;;;5073365;28;20052;-61
2023/12/09 06:05:13;;;;;;;143.88;41.38;;;4.70;98.50;;;;;;5074544;28;20036;-59
2023/12/09 06:07:38;;;;;;;132.85;40.92;;;4.70;98.50;;;;;;5073637;28;20426;-61
2023/12/09 06:10:05;;;;;;;120.35;38.28;;;4.70;98.50;;;;;;5071417;28;20095;-60
2023/12/09 06:12:33;;;;;;;125.10;39.47;;;4.70;98.40;;;;;;5054743;28;20028;-61
2023/12/09 06:15:01;;;;;;;114.78;37.13;;;4.70;98.40;;;;;;5054334;28;20017;-60
2023/12/09 06:17:28;;;;;;;126.38;37.72;;;4.70;98.40;;;;;;5050024;28;20132;-60
2023/12/09 06:19:53;;;;;;;126.68;39.65;;;4.70;98.40;;;;;;5054547;28;20335;-60
2023/12/09 06:22:22;;;;;;;119.00;37.10;;;4.60;98.40;;;;;;5041727;28;20031;-59
2023/12/09 06:24:50;;;;;;;115.18;36.63;;;4.60;98.40;;;;;;5056427;28;20346;-58
2023/12/09 06:27:18;;;;;;;124.75;38.70;;;4.60;98.40;;;;;;5074029;28;20895;-56
2023/12/09 06:29:48;;;;;;;127.53;38.00;;;4.60;98.50;;;;;;5052933;28;20478;-59
2023/12/09 06:32:15;;;;;;;128.30;38.80;;;4.70;98.50;;;;;;5057522;28;20506;-58
2023/12/09 06:34:43;;;;;;;128.25;39.35;;;4.70;98.50;;;;;;5074007;28;20036;-57
2023/12/09 06:37:10;;;;;;;115.07;36.50;;;4.70;98.40;;;;;;5073480;28;20308;-58
2023/12/09 06:39:36;;;;;;;117.20;38.38;;;4.70;98.50;;;;;;5056155;28;20033;-59
2023/12/09 06:42:05;;;;;;;121.35;37.78;;;4.70;98.50;;;;;;5053981;28;20405;-60
2023/12/09 06:44:52;;;;;;;125.55;40.58;;;4.70;98.50;;;;;;5053006;28;20037;-59
2023/12/09 06:47:19;;;;;;;112.30;37.97;;;4.80;98.50;;;;;;5053360;28;20032;-58
2023/12/09 06:49:46;;;;;;;126.28;38.28;;;4.80;98.50;;;;;;5054916;28;20458;-56
2023/12/09 06:52:12;;;;;;;117.50;37.00;;;4.90;98.50;;;;;;5053734;28;20028;-58
2023/12/09 06:54:40;;;;;;;111.88;38.40;;;4.90;98.50;;;;;;5054070;28;20025;-57
2023/12/09 06:57:08;;;;;;;127.07;38.25;;;4.90;98.50;;;;;;5053848;28;20111;-58
2023/12/09 06:59:34;;;;;;;108.82;34.42;;;4.90;98.50;;;;;;5059289;28;20144;-60
2023/12/09 07:02:01;;;;;;;115.97;35.95;;;4.90;98.50;;;;;;5057318;28;20447;-58
2023/12/09 07:04:29;;;;;;;91.70;32.30;;;4.90;98.50;;;;;;5073604;28;20016;-56
2023/12/09 07:07:01;;;;;;;114.63;34.38;;;4.90;98.50;;;;;;5070236;28;20864;-60
2023/12/09 07:09:29;;;;;;;100.13;33.00;;;4.90;98.50;;;;;;5073686;28;20346;-60
2023/12/09 07:11:56;;;;;;;97.85;32.88;;;4.90;98.50;;;;;;5038867;28;20024;-60
2023/12/09 07:14:23;;;;;;;97.45;32.85;;;4.90;98.50;;;;;;5072771;28;20157;-60
2023/12/09 07:16:50;;;;;;;98.32;32.05;;;4.90;98.50;;;;;;5073127;28;20028;-59
2023/12/09 07:19:18;;;;;;;92.30;30.08;;;4.90;98.50;;;;;;5088107;28;20453;-57
2023/12/09 07:21:45;;;;;;;94.30;29.08;;;4.90;98.50;;;;;;5092960;28;20024;-58
2023/12/09 07:24:12;;;;;;;81.40;28.25;;;4.90;98.50;;;;;;5063186;28;20044;-57
2023/12/09 07:26:39;;;;;;;85.65;27.50;;;4.90;98.50;;;;;;5073460;28;20110;-58
2023/12/09 07:29:05;;;;;;;66.97;27.05;;;4.90;98.50;;;;;;5072856;28;20166;-59
2023/12/09 07:31:32;;;;;;;83.20;28.13;;;4.90;98.50;;;;;;5072904;28;20036;-57
2023/12/09 07:33:59;;;;;;;79.60;24.92;;;4.90;98.50;;;;;;5072676;28;20100;-56
2023/12/09 07:36:26;;;;;;;72.30;25.77;;;4.90;98.50;;;;;;5073258;28;20623;-58
2023/12/09 07:38:53;;;;;;;91.88;27.25;;;4.80;98.40;;;;;;5082288;28;20040;-57
2023/12/09 07:41:18;;;;;;;95.68;29.20;;;4.80;98.50;;;;;;5076520;28;20033;-56
2023/12/09 07:43:45;;;;;;;88.32;27.10;;;4.80;98.50;;;;;;5073321;28;20034;-57
2023/12/09 07:46:14;;;;;;;90.63;29.52;;;4.80;98.40;;;;;;5072870;28;20477;-55
2023/12/09 07:48:40;;;;;;;97.47;28.40;;;4.80;98.50;;;;;;5079507;28;20020;-54
2023/12/09 07:51:10;;;;;;;93.63;30.38;;;4.90;98.60;;;;;;5093160;28;20024;-57
2023/12/09 07:53:35;;;;;;;87.32;30.80;;;4.90;98.60;;;;;;5078529;28;20105;-57
2023/12/09 07:56:06;;;;;;;90.60;28.35;;;4.90;98.50;;;;;;5092884;28;20035;-56
2023/12/09 07:58:34;;;;;;;94.28;28.48;;;4.90;98.50;;;;;;5084547;28;20086;-57
2023/12/09 08:01:02;;;;;;;85.20;27.67;;;4.90;98.50;;;;;;5091965;28;20028;-57
2023/12/09 08:03:32;;;;;;;81.45;27.77;;;4.90;98.50;;;;;;5073793;28;20075;-57
2023/12/09 08:05:59;;;;;;;76.03;26.80;;;4.90;98.50;;;;;;5072495;28;20108;-54
2023/12/09 08:08:27;;;;;;;93.95;28.63;;;4.90;98.50;;;;;;5076129;28;20095;-57
2023/12/09 08:10:55;;;;;;;78.88;28.65;;;4.90;98.50;;;;;;5089583;28;20028;-55
2023/12/09 08:13:21;;;;;;;82.90;27.73;;;4.90;98.50;;;;;;5076433;28;20349;-56
2023/12/09 08:15:49;;;;;;;89.85;27.30;;;4.90;98.50;;;;;;5077098;28;20111;-57
2023/12/09 08:18:17;;;;;;;108.22;28.90;;;4.90;98.50;;;;;;5076462;28;20028;-55
2023/12/09 08:20:45;;;;;;;78.50;29.25;;;4.90;98.50;;;;;;5078670;28;20112;-57
2023/12/09 08:23:12;;;;;;;86.50;30.27;;;4.90;98.50;;;;;;5080005;28;20028;-56
2023/12/09 08:25:42;;;;;;;77.20;26.52;;;4.90;98.50;;;;;;5096692;28;20035;-56
2023/12/09 08:28:09;;;;;;;83.40;26.52;;;4.90;98.60;;;;;;5078723;28;20033;-56
2023/12/09 08:30:35;;;;;;;83.32;26.35;;;5.00;98.50;;;;;;5094099;28;20081;-57
2023/12/09 08:33:02;;;;;;;83.25;28.80;;;4.90;98.50;;;;;;5084276;28;20111;-57
2023/12/09 08:35:30;;;;;;;94.30;31.40;;;4.90;98.50;;;;;;5076514;28;20174;-57
2023/12/09 08:37:58;;;;;;;92.20;30.08;;;4.90;98.50;;;;;;5075567;28;20024;-57
2023/12/09 08:40:24;;;;;;;86.93;31.77;;;4.90;98.50;;;;;;5077266;28;20110;-58
2023/12/09 08:42:51;;;;;;;92.97;33.95;;;4.90;98.50;;;;;;5076733;28;20458;-58
2023/12/09 08:45:18;;;;;;;95.43;31.02;;;4.90;98.50;;;;;;5075212;28;20029;-58
2023/12/09 08:47:46;;;;;;;72.50;30.98;;;4.90;98.50;;;;;;5075552;28;20029;-58
2023/12/09 08:50:13;;;;;;;103.82;35.58;;;4.90;98.50;;;;;;5077349;28;20080;-56
2023/12/09 08:52:41;;;;;;;73.28;31.95;;;4.90;98.50;;;;;;5057937;28;20052;-55
2023/12/09 08:55:10;;;;;;;76.05;28.60;;;4.90;98.50;;;;;;5062917;28;20036;-56
2023/12/09 08:57:39;;;;;;;82.30;29.98;;;4.90;98.50;;;;;;5075942;28;20103;-55
2023/12/09 09:00:08;;;;;;;75.43;27.38;;;4.90;98.50;;;;;;5090481;28;20066;-57
2023/12/09 09:02:39;;;;;;;62.67;26.35;;;4.90;98.50;;;;;;5095332;28;20061;-56
2023/12/09 09:05:06;;;;;;;88.22;28.85;;;5.00;98.50;;;;;;5096009;28;20043;-54
2023/12/09 09:07:38;;;;;;;66.07;28.50;;;5.00;98.50;;;;;;5095348;28;20043;-55
2023/12/09 09:10:07;;;;;;;62.78;27.15;;;5.00;98.50;;;;;;5077364;28;20505;-57
2023/12/09 09:12:34;;;;;;;81.60;26.95;;;5.00;98.50;;;;;;5057881;28;20039;-58
2023/12/09 09:15:02;;;;;;;79.43;26.30;;;5.10;98.50;;;;;;5075417;28;20055;-58
2023/12/09 09:17:30;;;;;;;69.78;25.85;;;5.10;98.50;;;;;;5075932;28;20041;-58
2023/12/09 09:19:58;;;;;;;65.55;25.20;;;5.00;98.50;;;;;;5076851;28;20032;-58
2023/12/09 09:22:23;;;;;;;61.97;24.70;;;5.10;98.50;;;;;;5074524;28;20029;-58
2023/12/09 09:24:51;;;;;;;75.53;26.45;;;5.10;98.50;;;;;;5088241;28;20035;-59
2023/12/09 09:27:18;;;;;;;69.00;29.23;;;5.20;98.50;;;;;;5075121;28;20021;-59
2023/12/09 09:29:47;;;;;;;83.00;27.27;;;5.20;98.60;;;;;;5075585;28;20024;-59
2023/12/09 09:32:16;;;;;;;61.70;24.42;;;5.30;98.60;;;;;;5057731;28;20028;-59
2023/12/09 09:34:45;;;;;;;66.53;25.88;;;5.40;98.60;;;;;;5076826;28;20093;-59
2023/12/09 09:37:15;;;;;;;66.00;24.73;;;5.40;98.50;;;;;;5075075;28;20449;-59
2023/12/09 09:39:41;;;;;;;76.95;25.33;;;5.30;98.50;;;;;;5082202;28;20043;-59
2023/12/09 09:42:51;;;;;;;68.13;25.70;;;5.30;98.50;;;;;;5095068;28;20023;-59
2023/12/09 09:45:25;;;;;;;78.90;24.50;;;5.30;98.50;;;;;;5094617;28;20465;-59
2023/12/09 09:47:53;;;;;;;56.53;22.80;;;5.30;98.50;;;;;;5094344;28;20039;-59
2023/12/09 09:50:44;;;;;;;65.35;26.60;;;5.30;98.50;;;;;;5043810;28;20024;-60
2023/12/09 09:53:13;;;;;;;55.60;22.95;;;5.30;98.50;;;;;;5079625;28;20028;-59
2023/12/09 09:55:42;;;;;;;62.10;23.23;;;5.30;98.50;;;;;;5071095;28;20074;-60
2023/12/09 09:58:10;;;;;;;66.75;26.58;;;5.30;98.50;;;;;;5074491;28;20052;-59
2023/12/09 10:00:40;;;;;;;67.70;26.45;;;5.30;98.50;;;;;;5057407;28;20055;-60
2023/12/09 10:03:06;;;;;;;63.42;24.27;;;5.40;98.50;;;;;;5074009;28;20051;-60
2023/12/09 10:05:33;;;;;;;72.97;26.65;;;5.50;98.60;;;;;;5067548;28;20334;-59
2023/12/09 10:08:01;;;;;;;70.68;27.63;;;5.50;98.60;;;;;;5093561;28;20017;-59
2023/12/09 10:10:33;;;;;;;66.88;27.40;;;5.60;98.60;;;;;;5064645;28;20430;-59
2023/12/09 10:13:13;;;;;;;72.85;29.88;;;5.60;98.60;;;;;;5079256;28;20032;-59
2023/12/09 10:15:39;;;;;;;62.38;28.45;;;5.70;98.50;;;;;;5094389;28;20051;-59
2023/12/09 10:18:05;;;;;;;70.55;30.02;;;5.70;98.50;;;;;;5076050;28;20422;-60
2023/12/09 10:20:34;;;;;;;70.10;28.25;;;5.80;98.50;;;;;;5090532;28;20032;-59
2023/12/09 10:23:05;;;;;;;76.10;31.17;;;5.90;98.50;;;;;;5076252;28;20598;-60
2023/12/09 10:25:39;;;;;;;66.38;30.95;;;6.00;98.50;;;;;;5081029;28;20465;-59
2023/12/09 10:28:12;;;;;;;60.85;28.92;;;6.00;98.50;;;;;;5057793;28;20033;-60
2023/12/09 10:30:41;;;;;;;69.45;31.55;;;5.90;98.40;;;;;;5055959;28;20021;-59
2023/12/09 10:33:11;;;;;;;69.18;30.48;;;6.00;98.40;;;;;;5038723;28;20036;-59
2023/12/09 10:35:38;;;;;;;;;;;6.00;98.30;;;;;;5060713;28;20102;-60
2023/12/09 10:38:08;;;;;;;49.97;27.35;;;5.90;98.30;;;;;;5074435;28;19905;-59
2023/12/09 10:40:36;;;;;;;;;;;5.90;98.30;;;;;;5073718;28;20028;-60
2023/12/09 10:43:13;;;;;;;59.58;24.77;;;6.00;98.40;;;;;;5075966;28;19917;-60
2023/12/09 10:45:40;;;;;;;49.20;23.35;;;6.00;98.40;;;;;;5073589;28;20031;-59
2023/12/09 10:48:06;;;;;;;48.92;22.45;;;5.90;98.30;;;;;;5073941;28;20020;-60
2023/12/09 10:50:33;;;;;;;50.25;23.75;;;6.00;98.40;;;;;;5056921;28;20029;-60
2023/12/09 10:53:00;;;;;;;44.47;22.27;;;5.90;98.30;;;;;;5073494;28;20016;-60
2023/12/09 10:55:28;;;;;;;47.75;21.25;;;5.90;98.30;;;;;;5087382;28;20066;-60
2023/12/09 10:58:02;;;;;;;48.10;19.42;;;5.90;98.30;;;;;;5074167;28;20036;-60
2023/12/09 11:00:32;;;;;;;41.22;18.02;;;5.90;98.40;;;;;;5072422;28;20044;-60
2023/12/09 11:03:01;;;;;;;43.38;17.77;;;5.90;98.40;;;;;;5055294;28;20052;-60
2023/12/09 11:05:29;;;;;;;36.53;17.58;;;5.90;98.40;;;;;;5068736;28;20095;-60
2023/12/09 11:07:57;;;;;;;34.45;16.55;;;5.80;98.30;;;;;;5056214;28;20025;-61
2023/12/09 11:10:24;;;;;;;33.42;16.02;;;5.90;98.40;;;;;;5093449;28;20024;-60
2023/12/09 11:12:52;;;;;;;31.15;14.50;;;5.80;98.30;;;;;;5093268;28;20130;-60
2023/12/09 11:15:30;;;;;;;36.13;13.48;;;5.80;98.30;;;;;;5070957;28;20029;-60
2023/12/09 11:18:17;;;;;;;39.05;13.52;;;5.90;98.40;;;;;;5056862;28;20096;-60
2023/12/09 11:20:47;;;;;;;31.27;13.95;;;5.90;98.30;;;;;;5073161;28;20369;-60
2023/12/09 11:23:13;;;;;;;38.05;12.70;;;5.90;98.40;;;;;;5086327;28;20060;-60
2023/12/09 11:25:42;;;;;;;32.83;14.13;;;5.90;98.30;;;;;;5082708;28;20688;-60
2023/12/09 11:28:17;;;;;;;42.10;12.63;;;5.90;98.30;;;;;;5055489;28;20121;-60
2023/12/09 11:30:45;;;;;;;25.10;10.95;;;6.00;98.30;;;;;;5090247;28;20659;-60
2023/12/09 11:33:11;;;;;;;21.13;11.23;;;6.00;98.20;;;;;;5093020;28;20152;-61
2023/12/09 11:35:40;;;;;;;23.80;11.02;;;6.00;98.20;;;;;;5070920;28;20040;-61
2023/12/09 11:38:09;;;;;;;32.27;10.73;;;6.10;98.20;;;;;;5073559;28;20352;-60
2023/12/09 11:40:40;;;;;;;;;;;6.00;98.10;;;;;;5073508;28;20367;-60
2023/12/09 11:43:08;;;;;;;24.73;9.90;;;6.10;98.10;;;;;;5071802;28;19924;-59
2023/12/09 11:45:36;;;;;;;22.40;9.63;;;6.00;98.10;;;;;;5038130;28;20065;-60
2023/12/09 11:48:05;;;;;;;22.02;9.50;;;6.10;98.10;;;;;;5073592;28;20081;-60
2023/12/09 11:50:32;;;;;;;21.85;9.95;;;6.20;98.00;;;;;;5055292;28;20021;-59
2023/12/09 11:52:58;;;;;;;23.58;10.43;;;6.20;98.00;;;;;;5073851;28;20038;-59
2023/12/09 11:55:25;;;;;;;22.33;9.38;;;6.10;97.90;;;;;;5055010;28;20118;-59
2023/12/09 11:57:52;;;;;;;20.60;10.02;;;6.20;97.90;;;;;;5072916;28;20136;-58
2023/12/09 12:00:19;;;;;;;22.35;10.05;;;6.20;97.80;;;;;;5054947;28;20548;-58
2023/12/09 12:02:48;;;;;;;20.65;9.85;;;6.30;97.80;;;;;;5073588;28;20044;-59
2023/12/09 12:05:16;;;;;;;20.55;8.77;;;6.20;97.50;;;;;;5072387;28;20436;-59
2023/12/09 12:07:44;;;;;;;23.67;9.65;;;6.20;97.50;;;;;;5085741;28;20032;-58
2023/12/09 12:10:14;;;;;;;18.27;8.32;;;6.10;97.30;;;;;;5075969;28;20029;-58
2023/12/09 12:12:40;;;;;;;21.13;8.55;;;6.10;97.30;;;;;;5072332;28;20020;-58
2023/12/09 12:15:12;;;;;;;17.58;9.30;;;6.10;97.10;;;;;;5088885;28;20024;-58
2023/12/09 12:17:40;;;;;;;23.02;9.20;;;6.00;97.00;;;;;;5091210;28;20115;-56
2023/12/09 12:20:12;;;;;;;18.90;6.50;;;6.00;96.80;;;;;;5092634;28;20099;-57
2023/12/09 12:22:42;;;;;;;17.05;6.93;;;6.00;96.70;;;;;;5091036;28;20031;-57
2023/12/09 12:25:15;;;;;;;15.57;6.60;;;6.00;96.60;;;;;;5072298;28;20039;-59
2023/12/09 12:27:46;;;;;;;19.30;9.48;;;6.00;96.30;;;;;;5073007;28;20119;-59
2023/12/09 12:30:15;;;;;;;19.50;7.82;;;5.90;96.20;;;;;;5039069;28;20568;-58
2023/12/09 12:32:42;;;;;;;12.75;7.03;;;5.90;96.00;;;;;;5072642;28;20041;-54
2023/12/09 12:35:17;;;;;;;15.88;6.55;;;5.90;96.00;;;;;;5071884;28;20043;-58
2023/12/09 12:37:45;;;;;;;19.23;7.57;;;5.90;95.80;;;;;;5081221;28;20024;-58
2023/12/09 12:40:13;;;;;;;12.38;6.65;;;6.00;95.70;;;;;;5089583;28;20024;-55